Time;durP1;ratioP1;P1;durP2;ratioP2;P2;SDS_P1;SDS_P2;PMS_P1;PMS_P2;Temp;Humidity;BMP_temperature;BMP_pressure;BME280_temperature;BME280_humidity;BME280_pressure;Samples;Min_cycle;Max_cycle;Signal;HPM_P1;HPM_P2
2022/02/11 00:08:36;;;;;;;13.73;9.37;;;;;;;;;;6172275;23;20182;-82
2022/02/11 00:11:02;;;;;;;11.10;9.23;;;;;;;;;;6253864;23;20631;-82
2022/02/11 00:13:28;;;;;;;12.13;9.53;;;;;;;;;;6253446;23;20169;-82
2022/02/11 00:15:55;;;;;;;13.67;9.50;;;;;;;;;;6254058;23;20146;-83
2022/02/11 00:18:21;;;;;;;12.87;8.03;;;;;;;;;;6253703;23;20165;-84
2022/02/11 00:20:51;;;;;;;10.50;8.07;;;;;;;;;;6251280;23;20248;-82
2022/02/11 00:23:17;;;;;;;9.83;7.87;;;;;;;;;;6250942;23;20488;-83
2022/02/11 00:25:52;;;;;;;14.53;8.30;;;;;;;;;;6253519;23;20521;-83
2022/02/11 00:33:57;;;;;;;9.43;7.97;;;;;;;;;;6261959;23;20212;-82
2022/02/11 00:36:29;;;;;;;9.77;8.47;;;;;;;;;;6251988;23;20220;-83
2022/02/11 00:39:14;;;;;;;11.43;8.57;;;;;;;;;;6251665;23;20130;-83
2022/02/11 01:05:57;;;;;;;13.57;10.47;;;;;;;;;;6262132;23;20140;-83
2022/02/11 01:08:23;;;;;;;16.07;9.90;;;;;;;;;;6249754;23;20155;-83
2022/02/11 01:10:49;;;;;;;14.83;9.67;;;;;;;;;;6251004;23;20161;-83
2022/02/11 01:13:15;;;;;;;14.20;10.23;;;;;;;;;;6251629;23;20156;-84
2022/02/11 01:15:48;;;;;;;14.60;10.97;;;;;;;;;;6252539;23;20198;-84
2022/02/11 01:18:15;;;;;;;11.77;10.57;;;;;;;;;;6251559;23;20149;-84
2022/02/11 01:20:50;;;;;;;16.57;10.73;;;;;;;;;;6251769;23;20165;-83
2022/02/11 01:29:41;;;;;;;16.40;10.53;;;;;;;;;;6252732;23;20252;-83
2022/02/11 01:32:19;;;;;;;16.00;10.30;;;;;;;;;;6251847;23;20177;-83
2022/02/11 01:37:34;;;;;;;13.80;10.77;;;;;;;;;;6252871;23;20389;-83
2022/02/11 01:54:01;;;;;;;15.27;9.70;;;;;;;;;;6254362;23;20191;-83
2022/02/11 01:56:56;;;;;;;10.20;8.50;;;;;;;;;;6253989;23;20183;-83
2022/02/11 02:05:22;;;;;;;8.83;7.57;;;;;;;;;;6253829;23;20149;-83
2022/02/11 02:58:09;;;;;;;7.07;6.30;;;;;;;;;;6254783;23;20581;-83
2022/02/11 03:17:52;;;;;;;8.40;7.60;;;;;;;;;;6248403;23;20184;-83
2022/02/11 04:55:07;;;;;;;0.30;0.30;;;;;;;;;;6251255;23;20152;-83
2022/02/11 05:00:19;;;;;;;0.30;0.30;;;;;;;;;;6249367;23;20248;-83
2022/02/11 05:02:47;;;;;;;0.50;0.40;;;;;;;;;;6250208;23;20153;-83
2022/02/11 05:05:16;;;;;;;0.30;0.30;;;;;;;;;;6248495;23;20149;-82
2022/02/11 05:07:42;;;;;;;0.23;0.20;;;;;;;;;;6250526;23;20152;-83
2022/02/11 05:10:09;;;;;;;0.40;0.33;;;;;;;;;;6249597;23;20199;-82
2022/02/11 05:12:36;;;;;;;1.53;0.70;;;;;;;;;;6250406;23;20542;-83
2022/02/11 05:15:08;;;;;;;1.07;0.50;;;;;;;;;;6251263;23;20165;-82
2022/02/11 05:17:34;;;;;;;0.60;0.60;;;;;;;;;;6251866;23;20121;-83
2022/02/11 05:20:00;;;;;;;1.90;1.00;;;;;;;;;;6251366;23;20479;-83
2022/02/11 05:22:26;;;;;;;0.30;0.30;;;;;;;;;;6252791;23;20165;-83
2022/02/11 05:24:52;;;;;;;0.20;0.20;;;;;;;;;;6251012;23;20183;-83
2022/02/11 05:27:18;;;;;;;0.23;0.23;;;;;;;;;;6248806;23;20145;-83
2022/02/11 05:29:44;;;;;;;0.40;0.40;;;;;;;;;;6251072;23;20168;-83
2022/02/11 05:32:10;;;;;;;0.20;0.20;;;;;;;;;;6252778;23;20467;-83
2022/02/11 05:34:36;;;;;;;0.20;0.20;;;;;;;;;;6252833;23;20180;-83
2022/02/11 05:37:02;;;;;;;0.20;0.20;;;;;;;;;;6253890;23;20211;-83
2022/02/11 05:39:28;;;;;;;0.20;0.20;;;;;;;;;;6251046;23;20156;-83
2022/02/11 05:41:54;;;;;;;0.30;0.30;;;;;;;;;;6252494;23;20168;-83
2022/02/11 05:44:20;;;;;;;0.17;0.17;;;;;;;;;;6254474;23;20149;-83
2022/02/11 05:46:46;;;;;;;0.20;0.20;;;;;;;;;;6253368;23;20155;-83
2022/02/11 05:49:12;;;;;;;0.33;0.30;;;;;;;;;;6253600;23;20196;-83
2022/02/11 05:51:38;;;;;;;0.20;0.20;;;;;;;;;;6251564;23;20168;-83
2022/02/11 05:54:04;;;;;;;0.30;0.20;;;;;;;;;;6253747;23;20234;-83
2022/02/11 05:56:30;;;;;;;0.30;0.30;;;;;;;;;;6253896;23;20176;-83
2022/02/11 05:58:56;;;;;;;0.50;0.30;;;;;;;;;;6252934;23;20145;-82
2022/02/11 06:01:22;;;;;;;0.40;0.30;;;;;;;;;;6251937;23;20188;-83
2022/02/11 06:03:48;;;;;;;0.40;0.40;;;;;;;;;;6251286;23;20156;-85
2022/02/11 06:06:14;;;;;;;1.67;0.77;;;;;;;;;;6253176;23;20149;-83
2022/02/11 06:08:40;;;;;;;0.40;0.40;;;;;;;;;;6253158;23;20526;-82
2022/02/11 06:11:06;;;;;;;0.20;0.20;;;;;;;;;;6251686;23;20251;-84
2022/02/11 06:13:32;;;;;;;0.20;0.20;;;;;;;;;;6253071;23;20152;-82
2022/02/11 06:15:59;;;;;;;1.73;0.23;;;;;;;;;;6253983;23;20149;-83
2022/02/11 06:18:25;;;;;;;0.40;0.40;;;;;;;;;;6253810;23;20605;-84
2022/02/11 06:20:51;;;;;;;0.47;0.30;;;;;;;;;;6253329;23;20167;-83
2022/02/11 06:23:17;;;;;;;0.20;0.20;;;;;;;;;;6252753;23;20457;-82
2022/02/11 06:25:43;;;;;;;0.37;0.20;;;;;;;;;;6253118;23;20622;-82
2022/02/11 06:28:11;;;;;;;0.50;0.50;;;;;;;;;;6253441;23;20665;-83
2022/02/11 06:30:37;;;;;;;0.30;0.30;;;;;;;;;;6252238;23;20180;-83
2022/02/11 06:33:03;;;;;;;0.87;0.40;;;;;;;;;;6251167;23;20820;-82
2022/02/11 06:35:34;;;;;;;0.30;0.30;;;;;;;;;;6251772;23;20217;-82
2022/02/11 06:38:00;;;;;;;0.73;0.40;;;;;;;;;;6253731;23;20145;-83
2022/02/11 06:40:30;;;;;;;1.53;0.80;;;;;;;;;;6251103;23;20169;-83
2022/02/11 06:42:57;;;;;;;0.60;0.50;;;;;;;;;;6250238;23;20171;-84
2022/02/11 06:45:23;;;;;;;0.33;0.33;;;;;;;;;;6250648;23;20171;-82
2022/02/11 06:47:49;;;;;;;0.60;0.50;;;;;;;;;;6253106;23;20158;-82
2022/02/11 06:50:16;;;;;;;0.77;0.50;;;;;;;;;;6254212;23;20233;-82
2022/02/11 06:52:42;;;;;;;0.90;0.60;;;;;;;;;;6251911;23;20623;-84
2022/02/11 06:55:09;;;;;;;1.00;0.57;;;;;;;;;;6249769;23;20147;-83
2022/02/11 06:57:35;;;;;;;0.60;0.60;;;;;;;;;;6252155;23;20178;-84
2022/02/11 07:00:01;;;;;;;0.80;0.60;;;;;;;;;;6251232;23;20158;-83
2022/02/11 07:02:30;;;;;;;0.90;0.87;;;;;;;;;;6250055;23;20163;-83
2022/02/11 07:05:00;;;;;;;1.43;1.33;;;;;;;;;;6250369;23;20143;-83
2022/02/11 07:07:35;;;;;;;1.43;1.33;;;;;;;;;;6250971;23;20221;-83
2022/02/11 07:10:07;;;;;;;1.47;0.70;;;;;;;;;;6250903;23;20178;-82
2022/02/11 07:12:33;;;;;;;1.50;1.40;;;;;;;;;;6251838;23;20127;-82
2022/02/11 07:14:59;;;;;;;1.13;1.10;;;;;;;;;;6251721;23;20737;-82
2022/02/11 07:17:25;;;;;;;1.60;1.50;;;;;;;;;;6252779;23;20228;-82
2022/02/11 07:19:54;;;;;;;1.90;1.77;;;;;;;;;;6252035;23;20192;-82
2022/02/11 07:22:34;;;;;;;1.70;1.57;;;;;;;;;;6249502;23;20154;-82
2022/02/11 07:25:00;;;;;;;1.77;1.60;;;;;;;;;;6251883;23;20151;-82
2022/02/11 07:27:26;;;;;;;2.30;1.70;;;;;;;;;;6249870;23;20177;-81
2022/02/11 07:29:52;;;;;;;1.77;1.67;;;;;;;;;;6252806;23;20167;-81
2022/02/11 07:32:21;;;;;;;2.20;2.00;;;;;;;;;;6252014;23;20141;-83
2022/02/11 07:34:47;;;;;;;2.30;1.97;;;;;;;;;;6251704;23;20654;-81
2022/02/11 07:37:13;;;;;;;3.27;2.40;;;;;;;;;;6249600;23;20151;-82
2022/02/11 07:39:39;;;;;;;3.43;2.67;;;;;;;;;;6248831;23;20150;-81
2022/02/11 07:42:05;;;;;;;3.00;2.70;;;;;;;;;;6249259;23;20210;-82
2022/02/11 07:44:31;;;;;;;2.67;2.47;;;;;;;;;;6250321;23;20202;-82
2022/02/11 07:46:57;;;;;;;3.77;3.23;;;;;;;;;;6249919;23;20219;-82
2022/02/11 07:49:23;;;;;;;3.30;3.10;;;;;;;;;;6250025;23;20172;-82
2022/02/11 07:51:49;;;;;;;3.80;3.50;;;;;;;;;;6248711;23;20797;-82
2022/02/11 07:54:15;;;;;;;3.27;2.97;;;;;;;;;;6248735;23;20562;-82
2022/02/11 07:56:41;;;;;;;4.00;3.70;;;;;;;;;;6250492;23;20200;-82
2022/02/11 07:59:07;;;;;;;4.07;3.77;;;;;;;;;;6249856;23;20148;-83
2022/02/11 08:01:33;;;;;;;5.13;4.73;;;;;;;;;;6203833;22;1087954;-82
2022/02/11 08:04:00;;;;;;;5.27;4.07;;;;;;;;;;6251544;23;20878;-82
2022/02/11 08:06:26;;;;;;;3.70;3.40;;;;;;;;;;6249842;23;20168;-82
2022/02/11 08:08:52;;;;;;;5.60;4.03;;;;;;;;;;6248277;23;20506;-82
2022/02/11 08:11:18;;;;;;;3.93;3.53;;;;;;;;;;6251474;23;20175;-82
2022/02/11 08:13:43;;;;;;;4.37;3.10;;;;;;;;;;6245309;23;20160;-82
2022/02/11 08:16:10;;;;;;;3.77;3.43;;;;;;;;;;6252198;23;20149;-82
2022/02/11 08:18:36;;;;;;;3.77;3.47;;;;;;;;;;6251103;23;20228;-82
2022/02/11 08:21:02;;;;;;;3.80;3.50;;;;;;;;;;6252092;23;20644;-82
2022/02/11 08:23:28;;;;;;;5.30;3.63;;;;;;;;;;6252453;23;20143;-82
2022/02/11 08:25:54;;;;;;;3.77;3.47;;;;;;;;;;6252635;23;20170;-82
2022/02/11 08:28:20;;;;;;;3.90;3.50;;;;;;;;;;6253266;23;20147;-82
2022/02/11 08:30:49;;;;;;;5.37;3.33;;;;;;;;;;6251832;23;20257;-80
2022/02/11 08:33:16;;;;;;;3.80;3.50;;;;;;;;;;6253268;23;20173;-80
2022/02/11 08:35:44;;;;;;;3.73;2.33;;;;;;;;;;6252916;23;20156;-80
2022/02/11 08:38:10;;;;;;;3.70;3.00;;;;;;;;;;6252353;23;20223;-81
2022/02/11 08:40:36;;;;;;;3.47;2.87;;;;;;;;;;6253095;23;20158;-81
2022/02/11 08:43:04;;;;;;;4.40;3.67;;;;;;;;;;6251982;23;20614;-82
2022/02/11 08:45:32;;;;;;;5.50;3.40;;;;;;;;;;6250881;23;20226;-81
2022/02/11 08:47:58;;;;;;;3.43;2.90;;;;;;;;;;6251175;23;20147;-81
2022/02/11 08:50:24;;;;;;;3.23;2.93;;;;;;;;;;6252065;23;20228;-81
2022/02/11 08:52:51;;;;;;;7.20;2.83;;;;;;;;;;6252331;23;20195;-80
2022/02/11 08:55:21;;;;;;;3.47;2.80;;;;;;;;;;6251567;23;20193;-82
2022/02/11 08:57:48;;;;;;;6.20;2.60;;;;;;;;;;6252240;23;20124;-81
2022/02/11 09:00:17;;;;;;;11.40;3.43;;;;;;;;;;6249918;23;20183;-79
2022/02/11 09:02:43;;;;;;;5.30;2.60;;;;;;;;;;6249486;23;20171;-83
2022/02/11 09:05:09;;;;;;;3.40;2.97;;;;;;;;;;6254355;23;20159;-79
2022/02/11 09:07:35;;;;;;;2.97;2.63;;;;;;;;;;6252848;23;20595;-79
2022/02/11 09:10:04;;;;;;;4.17;2.53;;;;;;;;;;6252983;23;20300;-81
2022/02/11 09:12:30;;;;;;;3.50;2.30;;;;;;;;;;6252913;23;20151;-82
2022/02/11 09:14:56;;;;;;;3.10;2.03;;;;;;;;;;6253561;23;20160;-80
2022/02/11 09:17:22;;;;;;;3.50;2.20;;;;;;;;;;6252617;23;20144;-81
2022/02/11 09:19:50;;;;;;;2.87;2.03;;;;;;;;;;6255241;23;20150;-81
2022/02/11 09:22:16;;;;;;;3.27;1.87;;;;;;;;;;6254675;23;20148;-80
2022/02/11 09:24:43;;;;;;;3.10;1.53;;;;;;;;;;6255132;23;20158;-80
2022/02/11 09:27:09;;;;;;;2.97;1.30;;;;;;;;;;6251548;23;20151;-82
2022/02/11 09:29:35;;;;;;;5.03;2.10;;;;;;;;;;6255886;23;20180;-82
2022/02/11 09:32:01;;;;;;;2.83;1.67;;;;;;;;;;6253787;23;20233;-82
2022/02/11 09:34:27;;;;;;;4.03;2.03;;;;;;;;;;6253730;23;20140;-80
2022/02/11 09:36:53;;;;;;;5.23;1.97;;;;;;;;;;6252125;23;20155;-83
2022/02/11 09:39:19;;;;;;;4.50;1.80;;;;;;;;;;6251934;23;20179;-81
2022/02/11 09:41:45;;;;;;;3.17;1.80;;;;;;;;;;6253919;23;20217;-82
2022/02/11 09:44:13;;;;;;;3.50;1.83;;;;;;;;;;6255906;23;20145;-82
2022/02/11 09:46:39;;;;;;;3.73;1.33;;;;;;;;;;6255901;23;20151;-81
2022/02/11 09:49:06;;;;;;;3.10;1.50;;;;;;;;;;6255978;23;20173;-81
2022/02/11 09:51:32;;;;;;;3.40;1.40;;;;;;;;;;6252868;23;20168;-82
2022/02/11 09:53:58;;;;;;;12.77;1.90;;;;;;;;;;6254285;23;20202;-81
2022/02/11 09:56:25;;;;;;;4.53;1.50;;;;;;;;;;6256860;23;20147;-82
2022/02/11 09:58:51;;;;;;;2.53;1.50;;;;;;;;;;6253706;23;20154;-82
2022/02/11 10:01:20;;;;;;;2.77;1.40;;;;;;;;;;6254590;23;20189;-81
2022/02/11 10:03:46;;;;;;;2.60;1.20;;;;;;;;;;6257012;23;20151;-81
2022/02/11 10:06:12;;;;;;;3.83;1.63;;;;;;;;;;6257911;23;20612;-82
2022/02/11 10:08:40;;;;;;;3.90;1.57;;;;;;;;;;6257309;23;20148;-81
2022/02/11 10:11:08;;;;;;;3.53;1.50;;;;;;;;;;6256541;23;20228;-82
2022/02/11 10:13:35;;;;;;;5.37;1.47;;;;;;;;;;6257238;23;20540;-80
2022/02/11 10:16:08;;;;;;;2.70;1.13;;;;;;;;;;6256904;23;20147;-80
2022/02/11 10:18:35;;;;;;;3.00;1.40;;;;;;;;;;6256784;23;20458;-81
2022/02/11 10:21:02;;;;;;;6.60;1.40;;;;;;;;;;6256374;23;20175;-83
2022/02/11 10:23:32;;;;;;;2.57;1.13;;;;;;;;;;6255387;23;20236;-81
2022/02/11 10:26:07;;;;;;;4.10;1.33;;;;;;;;;;6257786;23;20566;-81
2022/02/11 10:28:37;;;;;;;2.17;1.63;;;;;;;;;;6255769;23;20148;-81
2022/02/11 10:31:06;;;;;;;1.63;1.30;;;;;;;;;;6255907;23;20530;-82
2022/02/11 10:33:48;;;;;;;2.40;1.40;;;;;;;;;;6254917;23;20160;-81
2022/02/11 10:36:15;;;;;;;4.03;1.40;;;;;;;;;;6255853;23;20140;-83
2022/02/11 10:38:41;;;;;;;3.10;1.20;;;;;;;;;;6256840;23;20470;-82
2022/02/11 10:41:07;;;;;;;2.67;1.47;;;;;;;;;;6255991;23;20161;-81
2022/02/11 10:43:33;;;;;;;3.77;1.60;;;;;;;;;;6255675;23;20137;-82
2022/02/11 10:46:01;;;;;;;2.87;1.63;;;;;;;;;;6255602;23;20152;-81
2022/02/11 10:48:28;;;;;;;4.40;1.47;;;;;;;;;;6252391;23;20513;-82
2022/02/11 10:51:01;;;;;;;3.03;1.37;;;;;;;;;;6254788;23;20232;-82
2022/02/11 10:53:31;;;;;;;2.67;1.40;;;;;;;;;;6255018;23;20275;-81
2022/02/11 10:56:04;;;;;;;1.80;1.00;;;;;;;;;;6255548;23;20211;-82
2022/02/11 10:58:32;;;;;;;2.43;1.20;;;;;;;;;;6256179;23;20515;-82
2022/02/11 11:01:01;;;;;;;3.43;1.30;;;;;;;;;;6254731;23;20184;-82
2022/02/11 11:03:33;;;;;;;2.80;1.23;;;;;;;;;;6253674;23;20149;-83
2022/02/11 11:06:01;;;;;;;3.93;1.60;;;;;;;;;;6256509;23;20145;-82
2022/02/11 11:08:28;;;;;;;4.40;1.30;;;;;;;;;;6254701;23;20145;-82
2022/02/11 11:10:56;;;;;;;6.20;1.47;;;;;;;;;;6255360;23;20179;-83
2022/02/11 11:13:22;;;;;;;2.97;1.10;;;;;;;;;;6253755;23;20149;-84
2022/02/11 11:15:48;;;;;;;3.97;1.20;;;;;;;;;;6255894;23;20166;-82
2022/02/11 11:18:17;;;;;;;4.10;1.20;;;;;;;;;;6256830;23;20146;-82
2022/02/11 11:20:45;;;;;;;1.60;0.97;;;;;;;;;;6255539;23;20196;-83
2022/02/11 11:23:22;;;;;;;2.30;1.13;;;;;;;;;;6255188;23;20152;-82
2022/02/11 11:25:53;;;;;;;3.53;1.17;;;;;;;;;;6256161;23;20138;-82
2022/02/11 11:28:38;;;;;;;1.60;1.30;;;;;;;;;;6255667;23;20146;-83
2022/02/11 11:31:18;;;;;;;2.13;1.10;;;;;;;;;;6256623;23;20173;-82
2022/02/11 11:33:44;;;;;;;4.13;1.20;;;;;;;;;;6256262;23;20130;-82
2022/02/11 11:36:14;;;;;;;2.50;1.10;;;;;;;;;;6254123;23;20154;-85
2022/02/11 11:38:44;;;;;;;5.70;1.27;;;;;;;;;;6257468;23;20172;-83
2022/02/11 11:41:21;;;;;;;4.40;1.10;;;;;;;;;;6256490;23;20177;-83
2022/02/11 11:43:51;;;;;;;4.00;1.13;;;;;;;;;;6256042;23;20153;-82
2022/02/11 11:46:17;;;;;;;3.73;1.57;;;;;;;;;;6257026;23;20171;-82
2022/02/11 11:49:00;;;;;;;2.53;1.20;;;;;;;;;;6260099;23;20157;-81
2022/02/11 11:51:28;;;;;;;2.00;1.03;;;;;;;;;;6259175;23;20213;-82
2022/02/11 11:54:13;;;;;;;3.47;1.10;;;;;;;;;;6257766;23;20507;-83
2022/02/11 11:56:41;;;;;;;2.20;0.90;;;;;;;;;;6257937;23;20137;-84
2022/02/11 11:59:17;;;;;;;4.30;1.17;;;;;;;;;;6259429;23;20145;-82
2022/02/11 12:02:01;;;;;;;2.53;1.23;;;;;;;;;;6260468;23;20228;-82
2022/02/11 12:04:29;;;;;;;7.87;1.03;;;;;;;;;;6259325;23;20196;-81
2022/02/11 12:07:03;;;;;;;2.13;0.90;;;;;;;;;;6259673;23;20145;-83
2022/02/11 12:09:29;;;;;;;2.93;0.90;;;;;;;;;;6260058;23;20169;-83
2022/02/11 12:11:57;;;;;;;2.17;0.70;;;;;;;;;;6257771;23;20208;-82
2022/02/11 12:14:25;;;;;;;3.93;0.90;;;;;;;;;;6260435;23;20141;-82
2022/02/11 12:16:51;;;;;;;2.83;1.10;;;;;;;;;;6259177;23;20217;-84
2022/02/11 12:19:17;;;;;;;3.53;0.80;;;;;;;;;;6259453;23;20146;-82
2022/02/11 12:21:44;;;;;;;2.90;1.10;;;;;;;;;;6259427;23;20165;-81
2022/02/11 12:29:47;;;;;;;3.93;1.10;;;;;;;;;;6258984;23;20230;-84
2022/02/11 12:32:13;;;;;;;3.87;1.10;;;;;;;;;;6259889;23;20130;-82
2022/02/11 12:34:39;;;;;;;3.20;1.20;;;;;;;;;;6259864;23;20173;-82
2022/02/11 12:37:09;;;;;;;2.67;0.90;;;;;;;;;;6258732;23;20161;-82
2022/02/11 12:39:35;;;;;;;2.23;0.80;;;;;;;;;;6259921;23;20483;-83
2022/02/11 12:42:02;;;;;;;6.20;1.00;;;;;;;;;;6260070;23;20635;-83
2022/02/11 12:44:29;;;;;;;0.90;0.60;;;;;;;;;;6258968;23;20238;-81
2022/02/11 12:46:56;;;;;;;3.23;0.90;;;;;;;;;;6259929;23;20150;-83
2022/02/11 12:49:22;;;;;;;1.93;0.80;;;;;;;;;;6257800;23;20177;-80
2022/02/11 12:51:49;;;;;;;2.10;0.70;;;;;;;;;;6259500;23;20181;-82
2022/02/11 12:54:15;;;;;;;2.20;0.90;;;;;;;;;;6259306;23;20173;-81
2022/02/11 12:56:41;;;;;;;2.17;1.00;;;;;;;;;;6258339;23;20155;-81
2022/02/11 12:59:08;;;;;;;2.70;0.80;;;;;;;;;;6259319;23;20471;-81
2022/02/11 13:01:34;;;;;;;2.50;0.93;;;;;;;;;;6259161;23;20180;-84
2022/02/11 13:04:00;;;;;;;2.13;0.70;;;;;;;;;;6259465;23;20206;-82
2022/02/11 13:06:27;;;;;;;2.63;0.90;;;;;;;;;;6259968;23;20142;-83
2022/02/11 13:09:03;;;;;;;2.40;0.70;;;;;;;;;;6257997;23;20201;-81
2022/02/11 13:11:30;;;;;;;1.33;0.50;;;;;;;;;;6256000;23;20164;-81
2022/02/11 13:14:14;;;;;;;1.80;0.60;;;;;;;;;;6259594;23;20146;-82
2022/02/11 13:16:40;;;;;;;5.33;1.00;;;;;;;;;;6259997;23;20171;-82
2022/02/11 13:19:17;;;;;;;1.37;0.60;;;;;;;;;;6253581;23;20573;-81
2022/02/11 13:21:43;;;;;;;1.40;0.77;;;;;;;;;;6254038;23;20172;-80
2022/02/11 13:24:09;;;;;;;1.43;0.87;;;;;;;;;;6252814;23;20199;-81
2022/02/11 13:26:37;;;;;;;1.90;0.90;;;;;;;;;;6253143;23;20202;-82
2022/02/11 13:29:11;;;;;;;1.67;0.80;;;;;;;;;;6251504;23;20174;-81
2022/02/11 13:31:45;;;;;;;4.07;0.80;;;;;;;;;;6253164;23;20162;-82
2022/02/11 13:34:11;;;;;;;1.90;0.80;;;;;;;;;;6249621;23;20153;-81
2022/02/11 13:36:37;;;;;;;3.73;1.03;;;;;;;;;;6251683;23;20137;-81
2022/02/11 13:39:04;;;;;;;1.93;0.60;;;;;;;;;;6251864;23;20143;-82
2022/02/11 13:41:34;;;;;;;2.00;1.00;;;;;;;;;;6250615;23;20228;-82
2022/02/11 13:44:03;;;;;;;1.77;0.70;;;;;;;;;;6250868;23;20452;-81
2022/02/11 13:46:40;;;;;;;1.63;0.60;;;;;;;;;;6251654;23;20150;-81
2022/02/11 13:49:06;;;;;;;2.00;0.93;;;;;;;;;;6251232;23;20158;-81
2022/02/11 13:51:32;;;;;;;3.30;1.00;;;;;;;;;;6251029;23;20399;-79
2022/02/11 13:54:08;;;;;;;1.50;0.80;;;;;;;;;;6251308;23;20137;-79
2022/02/11 13:56:34;;;;;;;1.20;0.60;;;;;;;;;;6251777;23;20500;-81
2022/02/11 13:59:11;;;;;;;3.00;0.50;;;;;;;;;;6250212;23;20163;-80
2022/02/11 14:01:38;;;;;;;1.80;1.00;;;;;;;;;;6250910;23;20200;-79
2022/02/11 14:04:06;;;;;;;2.20;1.10;;;;;;;;;;6248357;23;20582;-80
2022/02/11 14:06:36;;;;;;;2.30;0.80;;;;;;;;;;6249226;23;20153;-79
2022/02/11 14:09:10;;;;;;;1.90;0.70;;;;;;;;;;6251729;23;20189;-80
2022/02/11 14:11:40;;;;;;;3.60;1.00;;;;;;;;;;6249601;23;20168;-80
2022/02/11 14:14:17;;;;;;;4.03;0.90;;;;;;;;;;6250773;23;20139;-80
2022/02/11 14:16:44;;;;;;;2.03;0.83;;;;;;;;;;6251788;23;20453;-80
2022/02/11 14:19:10;;;;;;;2.27;0.70;;;;;;;;;;6251395;23;20154;-80
2022/02/11 14:21:36;;;;;;;2.37;0.50;;;;;;;;;;6250175;23;20161;-80
2022/02/11 14:24:02;;;;;;;2.37;0.80;;;;;;;;;;6251690;23;20146;-80
2022/02/11 14:26:32;;;;;;;2.00;0.60;;;;;;;;;;6250903;23;20465;-80
2022/02/11 14:28:58;;;;;;;1.80;0.67;;;;;;;;;;6250640;23;20303;-80
2022/02/11 14:31:25;;;;;;;2.67;0.80;;;;;;;;;;6241218;23;20186;-81
2022/02/11 14:33:51;;;;;;;2.03;0.77;;;;;;;;;;6246789;23;20139;-80
2022/02/11 14:36:17;;;;;;;1.37;0.70;;;;;;;;;;6243876;23;20151;-80
2022/02/11 14:38:43;;;;;;;2.00;0.67;;;;;;;;;;6246163;23;20534;-81
2022/02/11 14:43:53;;;;;;;1.50;0.60;;;;;;;;;;6250319;23;20142;-80
2022/02/11 14:46:21;;;;;;;2.00;0.80;;;;;;;;;;6251115;23;20662;-80
2022/02/11 14:48:47;;;;;;;2.93;0.93;;;;;;;;;;6249816;23;20138;-80
2022/02/11 14:51:13;;;;;;;2.63;0.70;;;;;;;;;;6250626;23;20500;-80
2022/02/11 14:53:39;;;;;;;1.40;0.60;;;;;;;;;;6249540;23;20152;-81
2022/02/11 14:56:07;;;;;;;2.53;1.40;;;;;;;;;;6249340;23;20149;-81
2022/02/11 14:58:33;;;;;;;2.17;1.10;;;;;;;;;;6250899;23;20275;-80
2022/02/11 15:00:59;;;;;;;2.67;0.80;;;;;;;;;;6250410;23;20637;-80
2022/02/11 15:03:27;;;;;;;1.47;1.00;;;;;;;;;;6251458;23;20145;-81
2022/02/11 15:05:53;;;;;;;1.20;0.80;;;;;;;;;;6251054;23;20212;-80
2022/02/11 15:08:19;;;;;;;1.93;1.00;;;;;;;;;;6250690;23;20157;-80
2022/02/11 15:10:45;;;;;;;1.63;0.83;;;;;;;;;;6250173;23;20181;-80
2022/02/11 15:13:11;;;;;;;2.73;0.90;;;;;;;;;;6248220;23;20316;-80
2022/02/11 15:15:37;;;;;;;1.47;0.80;;;;;;;;;;6249778;23;20172;-80
2022/02/11 15:18:05;;;;;;;2.97;0.80;;;;;;;;;;6249764;23;20142;-80
2022/02/11 15:20:31;;;;;;;2.60;1.20;;;;;;;;;;6249894;23;20160;-80
2022/02/11 15:22:57;;;;;;;2.43;1.10;;;;;;;;;;6246705;23;20150;-80
2022/02/11 15:25:23;;;;;;;3.90;1.13;;;;;;;;;;6248674;23;20146;-80
2022/02/11 15:27:49;;;;;;;1.73;0.80;;;;;;;;;;6249242;23;20208;-79
2022/02/11 15:30:15;;;;;;;1.70;0.87;;;;;;;;;;6248693;23;20177;-80
2022/02/11 15:32:42;;;;;;;1.60;0.90;;;;;;;;;;6248117;23;20148;-81
2022/02/11 15:35:08;;;;;;;2.23;1.00;;;;;;;;;;6248164;23;20141;-79
2022/02/11 15:37:35;;;;;;;1.53;0.90;;;;;;;;;;6248824;23;20765;-79
2022/02/11 15:40:01;;;;;;;1.93;0.70;;;;;;;;;;6246173;23;20152;-80
2022/02/11 15:42:27;;;;;;;0.87;0.63;;;;;;;;;;6246163;23;20160;-79
2022/02/11 15:44:53;;;;;;;1.63;1.20;;;;;;;;;;6247969;23;20151;-80
2022/02/11 15:47:19;;;;;;;2.13;0.70;;;;;;;;;;6247198;23;20151;-79
2022/02/11 15:49:45;;;;;;;3.13;0.90;;;;;;;;;;6247133;23;20485;-82
2022/02/11 15:52:11;;;;;;;2.70;1.07;;;;;;;;;;6249250;23;20165;-81
2022/02/11 15:54:38;;;;;;;3.10;1.20;;;;;;;;;;6248070;23;20144;-80
2022/02/11 15:57:04;;;;;;;1.57;1.00;;;;;;;;;;6247772;23;20157;-81
2022/02/11 15:59:31;;;;;;;2.20;1.30;;;;;;;;;;6247117;23;20154;-80
2022/02/11 16:01:57;;;;;;;1.80;1.13;;;;;;;;;;6245830;23;20213;-80
2022/02/11 16:04:23;;;;;;;2.47;1.57;;;;;;;;;;6247306;23;20172;-81
2022/02/11 16:06:49;;;;;;;2.57;1.40;;;;;;;;;;6247513;23;20149;-80
2022/02/11 16:09:15;;;;;;;2.40;1.40;;;;;;;;;;6248233;23;20169;-79
2022/02/11 16:11:41;;;;;;;3.80;1.60;;;;;;;;;;6247160;23;20184;-80
2022/02/11 16:14:09;;;;;;;2.43;1.50;;;;;;;;;;6247683;23;20461;-81
2022/02/11 16:16:37;;;;;;;3.27;1.30;;;;;;;;;;6247258;23;20149;-80
2022/02/11 16:19:03;;;;;;;2.87;1.30;;;;;;;;;;6247046;23;20625;-79
2022/02/11 16:21:29;;;;;;;2.27;1.20;;;;;;;;;;6245979;23;20180;-80
2022/02/11 16:23:55;;;;;;;2.30;1.47;;;;;;;;;;6246981;23;20146;-80
2022/02/11 16:26:21;;;;;;;1.77;1.10;;;;;;;;;;6247116;23;20228;-82
2022/02/11 16:28:47;;;;;;;4.60;1.27;;;;;;;;;;6245783;23;20149;-80
2022/02/11 16:31:21;;;;;;;2.17;1.30;;;;;;;;;;6248093;23;20633;-80
2022/02/11 16:33:48;;;;;;;5.07;1.40;;;;;;;;;;6249359;23;20152;-80
2022/02/11 16:36:14;;;;;;;2.80;1.50;;;;;;;;;;6251321;23;20145;-82
2022/02/11 16:38:42;;;;;;;2.13;1.60;;;;;;;;;;6251263;23;20142;-81
2022/02/11 16:41:08;;;;;;;2.83;1.57;;;;;;;;;;6249676;23;20165;-81
2022/02/11 16:43:34;;;;;;;3.03;2.00;;;;;;;;;;6250952;23;20164;-80
2022/02/11 16:46:00;;;;;;;3.17;1.67;;;;;;;;;;6250630;23;20211;-81
2022/02/11 16:48:26;;;;;;;4.23;1.87;;;;;;;;;;6251765;23;20149;-80
2022/02/11 16:50:52;;;;;;;3.67;1.70;;;;;;;;;;6251246;23;20649;-80
2022/02/11 16:53:18;;;;;;;5.47;1.80;;;;;;;;;;6250781;23;20151;-80
2022/02/11 16:55:44;;;;;;;2.10;1.30;;;;;;;;;;6251343;23;20848;-81
2022/02/11 16:58:10;;;;;;;4.47;3.23;;;;;;;;;;6254002;23;20148;-81
2022/02/11 17:00:36;;;;;;;6.23;3.73;;;;;;;;;;6254480;23;20184;-80
2022/02/11 17:03:02;;;;;;;4.00;2.80;;;;;;;;;;6254914;23;20161;-81
2022/02/11 17:05:30;;;;;;;6.80;2.27;;;;;;;;;;6253268;23;20593;-80
2022/02/11 17:07:56;;;;;;;2.87;1.70;;;;;;;;;;6253860;23;20561;-81
2022/02/11 17:10:22;;;;;;;8.10;2.30;;;;;;;;;;6253510;23;20556;-82
2022/02/11 17:12:48;;;;;;;4.03;2.47;;;;;;;;;;6251361;23;20157;-83
2022/02/11 17:15:15;;;;;;;6.87;3.27;;;;;;;;;;6243263;23;20456;-82
2022/02/11 17:17:41;;;;;;;3.03;1.77;;;;;;;;;;6247020;23;20587;-82
2022/02/11 17:20:09;;;;;;;6.57;1.67;;;;;;;;;;6250304;23;20160;-81
2022/02/11 17:22:35;;;;;;;4.30;2.43;;;;;;;;;;6249659;23;20168;-82
2022/02/11 17:25:01;;;;;;;2.73;1.50;;;;;;;;;;6249156;23;20230;-81
2022/02/11 17:27:27;;;;;;;3.07;2.00;;;;;;;;;;6248738;23;20489;-81
2022/02/11 17:29:53;;;;;;;3.10;2.00;;;;;;;;;;6250915;23;20473;-83
2022/02/11 17:32:19;;;;;;;3.67;2.00;;;;;;;;;;6250742;23;20145;-81
2022/02/11 17:34:48;;;;;;;5.70;2.10;;;;;;;;;;6251728;23;20141;-81
2022/02/11 17:37:15;;;;;;;3.20;2.20;;;;;;;;;;6251003;23;20232;-82
2022/02/11 17:39:42;;;;;;;6.80;2.70;;;;;;;;;;6251508;23;20159;-81
2022/02/11 17:42:09;;;;;;;3.87;2.50;;;;;;;;;;6252434;23;20198;-81
2022/02/11 17:44:35;;;;;;;5.60;2.57;;;;;;;;;;6253101;23;20144;-81
2022/02/11 17:47:01;;;;;;;5.67;2.97;;;;;;;;;;6263849;23;20149;-81
2022/02/11 17:49:27;;;;;;;7.03;3.37;;;;;;;;;;6265975;23;20165;-81
2022/02/11 17:51:53;;;;;;;3.90;2.47;;;;;;;;;;6266207;23;20165;-81
2022/02/11 17:54:19;;;;;;;6.73;4.00;;;;;;;;;;6254893;23;20267;-81
2022/02/11 17:56:46;;;;;;;6.37;3.20;;;;;;;;;;6252898;23;20519;-81
2022/02/11 17:59:12;;;;;;;2.67;2.00;;;;;;;;;;6254082;23;20148;-81
2022/02/11 18:01:42;;;;;;;4.20;2.40;;;;;;;;;;6253294;23;20188;-81
2022/02/11 18:04:08;;;;;;;2.63;1.90;;;;;;;;;;6253408;23;20147;-81
2022/02/11 18:06:34;;;;;;;5.47;2.23;;;;;;;;;;6253646;23;20148;-81
2022/02/11 18:09:00;;;;;;;8.70;2.60;;;;;;;;;;6254210;23;20168;-81
2022/02/11 18:11:29;;;;;;;2.87;1.93;;;;;;;;;;6252914;23;20161;-81
2022/02/11 18:13:55;;;;;;;4.40;1.90;;;;;;;;;;6252529;23;20479;-82
2022/02/11 18:16:21;;;;;;;3.53;1.50;;;;;;;;;;6249086;23;20152;-81
2022/02/11 18:18:48;;;;;;;2.40;1.83;;;;;;;;;;6251278;23;20140;-81
2022/02/11 18:21:16;;;;;;;4.00;2.30;;;;;;;;;;6252480;23;20164;-81
2022/02/11 18:23:42;;;;;;;3.27;2.53;;;;;;;;;;6252329;23;20141;-81
2022/02/11 18:26:08;;;;;;;5.93;3.07;;;;;;;;;;6249069;23;20174;-82
2022/02/11 18:28:34;;;;;;;5.23;3.50;;;;;;;;;;6250356;23;20578;-81
2022/02/11 18:31:00;;;;;;;7.73;3.40;;;;;;;;;;6250328;23;20187;-82
2022/02/11 18:33:26;;;;;;;6.60;2.73;;;;;;;;;;6250163;23;20155;-81
2022/02/11 18:35:52;;;;;;;4.77;3.00;;;;;;;;;;6251173;23;20170;-82
2022/02/11 18:38:19;;;;;;;6.53;4.37;;;;;;;;;;6250035;23;20187;-81
2022/02/11 18:40:45;;;;;;;5.83;3.73;;;;;;;;;;6251259;23;20172;-81
2022/02/11 18:43:12;;;;;;;13.83;6.60;;;;;;;;;;6248566;23;20157;-82